Nearby METAR Reports

 

NZCH - Christchurch Int, New Zealand
Distance from station: W 10km
Updated: 15 Oct 2019 20:00
Rain, Mist, Overcast
Rain, Mist, Overcast
 Wind from ENE
Wind: ENE 17 km/h
Temperature: 10°C
Wind Chill: 8°C
Dew Point: 10°C
Humidity: 100%
Barometer: 1011 hPa
Summary: Rain, Mist
Clouds: Overcast
Visibility: 3 km
Cloud details: Few Clouds 305 m
Mostly cloudy 640 m
Overcast 1006 m
2019/10/15 07:00 NZCH 150700Z AUTO 07009KT 2900 RA BR FEW010/// BKN021/// OVC033/// 10/10 Q1011 TEMPO FM0800 6000 RADZ BKN006